createdAt,value
2023-02-23T00:02:06.582Z,69.70
2023-02-23T00:04:34.716Z,69.80
2023-02-23T00:07:01.616Z,69.70
2023-02-23T00:09:35.165Z,69.80
2023-02-23T00:12:07.540Z,69.80
2023-02-23T00:14:38.111Z,69.80
2023-02-23T00:17:05.347Z,69.90
2023-02-23T00:19:33.365Z,70.00
2023-02-23T00:22:01.053Z,70.10
2023-02-23T00:24:27.898Z,70.10
2023-02-23T00:26:54.528Z,70.10
2023-02-23T00:29:24.669Z,70.20
2023-02-23T00:31:52.120Z,70.20
2023-02-23T00:34:23.698Z,70.30
2023-02-23T00:36:54.204Z,70.30
2023-02-23T00:39:23.129Z,70.40
2023-02-23T00:41:50.054Z,70.40
2023-02-23T00:44:17.159Z,70.40
2023-02-23T00:46:45.291Z,70.40
2023-02-23T00:49:13.254Z,70.40
2023-02-23T00:51:39.894Z,70.50
2023-02-23T00:54:07.704Z,70.50
2023-02-23T00:56:34.793Z,70.60
2023-02-23T00:59:01.581Z,70.60
2023-02-23T01:01:28.474Z,70.60
2023-02-23T01:03:55.209Z,70.70
2023-02-23T01:06:22.575Z,70.70
2023-02-23T01:08:52.011Z,70.80
2023-02-23T01:11:21.227Z,70.80
2023-02-23T01:13:49.214Z,70.90
2023-02-23T01:16:18.789Z,70.80
2023-02-23T01:18:46.299Z,70.90
2023-02-23T01:21:19.060Z,70.90
2023-02-23T01:23:46.169Z,71.00
2023-02-23T01:26:25.426Z,70.90
2023-02-23T01:28:54.649Z,71.10
2023-02-23T01:31:23.523Z,71.10
2023-02-23T01:33:58.314Z,71.00
2023-02-23T01:36:31.103Z,71.20
2023-02-23T01:38:59.999Z,71.10
2023-02-23T01:41:29.746Z,71.10
2023-02-23T01:44:08.060Z,71.20
2023-02-23T01:46:36.986Z,71.40
2023-02-23T01:49:04.828Z,71.30
2023-02-23T01:51:36.712Z,71.30
2023-02-23T01:54:18.266Z,71.40
2023-02-23T01:56:49.435Z,71.40
2023-02-23T01:59:17.869Z,71.40
2023-02-23T02:01:45.431Z,71.30
2023-02-23T02:04:16.700Z,71.30
2023-02-23T02:06:45.731Z,71.20
2023-02-23T02:09:19.415Z,71.30
2023-02-23T02:11:49.011Z,71.30
2023-02-23T02:14:23.168Z,71.30
2023-02-23T02:16:55.768Z,71.20
2023-02-23T02:19:54.666Z,71.30
2023-02-23T02:22:54.149Z,71.20
2023-02-23T02:25:43.962Z,71.20
2023-02-23T02:28:24.225Z,71.20
2023-02-23T02:31:19.729Z,71.30
2023-02-23T02:34:27.068Z,71.30
2023-02-23T02:37:12.613Z,71.20
2023-02-23T02:40:15.989Z,71.30
2023-02-23T02:42:59.056Z,71.40
2023-02-23T02:45:33.076Z,71.30
2023-02-23T02:48:25.716Z,71.30
2023-02-23T02:50:58.334Z,71.30
2023-02-23T02:53:56.876Z,71.30
2023-02-23T02:56:26.972Z,71.30
2023-02-23T02:58:54.461Z,71.20
2023-02-23T03:01:40.056Z,71.20
2023-02-23T03:04:40.521Z,71.30
2023-02-23T03:07:49.917Z,71.30
2023-02-23T03:11:00.654Z,71.30
2023-02-23T03:14:06.776Z,71.30
2023-02-23T03:17:15.031Z,71.30
2023-02-23T03:20:21.285Z,71.40
2023-02-23T03:23:15.444Z,71.50
2023-02-23T03:26:24.087Z,71.50
2023-02-23T03:29:28.733Z,71.50
2023-02-23T03:32:26.578Z,71.60
2023-02-23T03:35:24.936Z,71.60
2023-02-23T03:38:23.668Z,71.80
2023-02-23T03:41:10.635Z,71.90
2023-02-23T03:44:08.320Z,71.80
2023-02-23T03:46:55.023Z,72.00
2023-02-23T03:49:42.477Z,72.00
2023-02-23T03:52:35.010Z,72.10
2023-02-23T03:55:26.075Z,72.30
2023-02-23T03:58:16.955Z,72.30
2023-02-23T04:01:06.617Z,72.40
2023-02-23T04:03:55.944Z,72.50
2023-02-23T04:06:44.537Z,72.60
2023-02-23T04:09:29.969Z,72.60
2023-02-23T04:12:51.915Z,72.60
2023-02-23T04:15:35.683Z,72.70
2023-02-23T04:18:06.249Z,72.80
2023-02-23T04:20:32.881Z,72.40
2023-02-23T04:22:59.607Z,72.60
2023-02-23T04:25:26.821Z,72.70
2023-02-23T04:27:53.444Z,72.80
2023-02-23T04:30:20.544Z,72.90
2023-02-23T04:32:47.341Z,73.00
2023-02-23T04:35:14.166Z,73.00
2023-02-23T04:37:40.828Z,73.10
2023-02-23T04:40:08.159Z,73.10
2023-02-23T04:42:34.817Z,73.20
2023-02-23T04:45:01.386Z,73.20
2023-02-23T04:47:27.998Z,73.30
2023-02-23T04:49:54.609Z,73.30
2023-02-23T04:52:21.204Z,73.30
2023-02-23T04:54:48.145Z,73.40
2023-02-23T04:57:14.873Z,73.40
2023-02-23T04:59:41.627Z,73.50
2023-02-23T05:02:08.681Z,73.50
2023-02-23T05:04:35.478Z,73.50
2023-02-23T05:07:03.603Z,73.60
2023-02-23T05:09:31.360Z,73.60
2023-02-23T05:11:57.959Z,73.60
2023-02-23T05:14:24.886Z,73.60
2023-02-23T05:16:51.482Z,73.70
2023-02-23T05:19:18.294Z,73.70
2023-02-23T05:21:45.108Z,73.70
2023-02-23T05:24:11.785Z,73.70
2023-02-23T05:26:38.635Z,73.80
2023-02-23T05:29:06.520Z,73.80
2023-02-23T05:31:33.933Z,73.80
2023-02-23T05:34:00.645Z,73.80
2023-02-23T05:36:27.650Z,73.90
2023-02-23T05:38:54.387Z,73.90
2023-02-23T05:41:23.701Z,73.90
2023-02-23T05:43:53.680Z,74.00
2023-02-23T05:46:24.078Z,74.00
2023-02-23T05:49:00.868Z,74.00
2023-02-23T05:51:29.926Z,74.00
2023-02-23T05:53:56.524Z,74.00
2023-02-23T05:56:24.791Z,74.10
2023-02-23T05:58:53.995Z,74.10
2023-02-23T06:01:21.966Z,74.10
2023-02-23T06:03:49.288Z,74.10
2023-02-23T06:06:16.832Z,74.10
2023-02-23T06:08:43.456Z,74.10
2023-02-23T06:11:10.861Z,74.10
2023-02-23T06:13:37.530Z,74.20
2023-02-23T06:16:04.887Z,74.20
2023-02-23T06:18:31.550Z,74.20
2023-02-23T06:21:01.852Z,74.20
2023-02-23T06:23:29.480Z,74.30
2023-02-23T06:25:56.227Z,74.30
2023-02-23T06:28:23.541Z,74.30
2023-02-23T06:30:52.599Z,74.30
2023-02-23T06:33:19.255Z,74.40
2023-02-23T06:35:46.431Z,74.40
2023-02-23T06:38:13.567Z,74.40
2023-02-23T06:40:40.294Z,74.50
2023-02-23T06:43:06.904Z,74.50
2023-02-23T06:45:33.563Z,74.50
2023-02-23T06:48:00.986Z,74.60
2023-02-23T06:50:28.283Z,74.60
2023-02-23T06:52:56.937Z,74.60
2023-02-23T06:55:23.956Z,74.60
2023-02-23T06:57:51.858Z,74.60
2023-02-23T07:00:19.021Z,74.70
2023-02-23T07:02:46.061Z,74.70
2023-02-23T07:05:12.691Z,74.70
2023-02-23T07:07:39.357Z,74.80
2023-02-23T07:10:07.192Z,74.80
2023-02-23T07:12:33.883Z,74.90
2023-02-23T07:15:00.502Z,74.90
2023-02-23T07:17:27.141Z,74.90
2023-02-23T07:19:53.792Z,74.90
2023-02-23T07:22:20.482Z,75.00
2023-02-23T07:24:47.612Z,75.00
2023-02-23T07:27:14.263Z,75.00
2023-02-23T07:29:40.845Z,75.00
2023-02-23T07:32:07.605Z,75.00
2023-02-23T07:34:34.235Z,75.00
2023-02-23T07:37:00.865Z,75.00
2023-02-23T07:39:27.624Z,75.10
2023-02-23T07:41:54.237Z,75.10
2023-02-23T07:44:20.916Z,75.10
2023-02-23T07:46:47.580Z,75.10
2023-02-23T07:49:14.150Z,75.10
2023-02-23T07:51:41.294Z,75.00
2023-02-23T07:54:07.939Z,75.00
2023-02-23T07:56:35.454Z,75.00
2023-02-23T07:59:02.843Z,75.00
2023-02-23T08:01:29.656Z,75.00
2023-02-23T08:03:56.297Z,75.00
2023-02-23T08:06:22.982Z,75.00
2023-02-23T08:08:49.606Z,75.00
2023-02-23T08:11:16.684Z,75.00
2023-02-23T08:13:43.561Z,75.00
2023-02-23T08:16:12.365Z,75.00
2023-02-23T08:18:39.142Z,75.00
2023-02-23T08:21:05.925Z,75.00
2023-02-23T08:23:33.652Z,75.00
2023-02-23T08:26:01.793Z,75.00
2023-02-23T08:28:29.758Z,75.10
2023-02-23T08:30:56.743Z,75.00
2023-02-23T08:33:23.741Z,74.90
2023-02-23T08:35:50.344Z,74.90
2023-02-23T08:38:18.195Z,74.90
2023-02-23T08:40:45.144Z,74.90
2023-02-23T08:43:11.778Z,74.80
2023-02-23T08:45:39.724Z,74.80
2023-02-23T08:48:07.714Z,74.80
2023-02-23T08:50:34.419Z,74.80
2023-02-23T08:53:01.066Z,74.80
2023-02-23T08:55:27.770Z,74.70
2023-02-23T08:57:54.397Z,74.70
2023-02-23T09:00:21.429Z,74.70
2023-02-23T09:02:48.265Z,74.70
2023-02-23T09:05:15.804Z,74.60
2023-02-23T09:07:45.047Z,74.50
2023-02-23T09:10:24.880Z,74.50
2023-02-23T09:12:51.475Z,74.50
2023-02-23T09:15:18.326Z,74.40
2023-02-23T09:17:45.130Z,74.30
2023-02-23T09:20:13.487Z,74.30
2023-02-23T09:22:41.917Z,74.30
2023-02-23T09:25:10.326Z,74.30
2023-02-23T09:27:36.954Z,74.30
2023-02-23T09:30:04.943Z,74.30
2023-02-23T09:32:31.710Z,74.20
2023-02-23T09:34:58.373Z,74.20
2023-02-23T09:37:25.086Z,74.20
2023-02-23T09:39:51.682Z,74.30
2023-02-23T09:42:46.445Z,74.20
2023-02-23T09:45:28.158Z,74.40
2023-02-23T09:48:12.683Z,74.40
2023-02-23T09:50:42.011Z,74.40
2023-02-23T09:53:20.493Z,74.40
2023-02-23T09:55:48.412Z,74.40
2023-02-23T09:58:35.495Z,74.40
2023-02-23T10:01:12.650Z,74.30
2023-02-23T10:03:42.841Z,74.30
2023-02-23T10:06:12.464Z,74.30
2023-02-23T10:09:08.694Z,74.30
2023-02-23T10:11:45.789Z,74.20
2023-02-23T10:14:53.169Z,74.10
2023-02-23T10:17:45.648Z,73.90
2023-02-23T10:20:15.227Z,73.60
2023-02-23T10:22:43.811Z,73.30
2023-02-23T10:25:17.883Z,73.00
2023-02-23T10:27:48.367Z,72.80
2023-02-23T10:30:21.022Z,72.60
2023-02-23T10:32:51.980Z,72.40
2023-02-23T10:35:21.123Z,72.20
2023-02-23T10:37:49.147Z,72.20
2023-02-23T10:40:20.725Z,71.80
2023-02-23T10:42:47.341Z,71.60
2023-02-23T10:45:25.691Z,71.50
2023-02-23T10:48:00.499Z,71.30
2023-02-23T10:50:29.002Z,71.10
2023-02-23T10:53:00.265Z,71.10
2023-02-23T10:55:32.021Z,70.80
2023-02-23T10:58:09.539Z,70.80
2023-02-23T11:00:39.874Z,70.70
2023-02-23T11:03:19.263Z,70.30
2023-02-23T11:05:50.567Z,70.30
2023-02-23T11:08:43.445Z,70.50
2023-02-23T11:11:15.925Z,70.20
2023-02-23T11:13:45.353Z,70.30
2023-02-23T11:16:14.462Z,70.30
2023-02-23T11:18:49.661Z,70.10
2023-02-23T11:21:23.864Z,70.10
2023-02-23T11:23:53.793Z,69.90
2023-02-23T11:26:35.156Z,69.90
2023-02-23T11:29:25.867Z,69.90
2023-02-23T11:31:55.430Z,70.10
2023-02-23T11:34:30.778Z,70.30
2023-02-23T11:37:05.231Z,70.30
2023-02-23T11:39:32.419Z,70.40
2023-02-23T11:42:16.094Z,70.40
2023-02-23T11:44:49.281Z,70.30
2023-02-23T11:47:19.880Z,70.30
2023-02-23T11:49:49.470Z,70.30
2023-02-23T11:52:19.132Z,70.20
2023-02-23T11:55:02.100Z,70.30
2023-02-23T11:57:31.921Z,69.80
2023-02-23T12:00:00.225Z,70.00
2023-02-23T12:02:29.600Z,69.90
2023-02-23T12:05:23.308Z,69.80
2023-02-23T12:08:18.277Z,69.80
2023-02-23T12:10:51.940Z,69.60
2023-02-23T12:13:42.126Z,69.70
2023-02-23T12:16:26.486Z,69.70
2023-02-23T12:19:19.070Z,69.40
2023-02-23T12:22:09.352Z,69.50
2023-02-23T12:24:53.940Z,69.60
2023-02-23T12:27:38.064Z,69.60
2023-02-23T12:30:19.763Z,69.60
2023-02-23T12:32:51.122Z,69.50
2023-02-23T12:35:38.556Z,69.50
2023-02-23T12:38:27.690Z,69.40
2023-02-23T12:41:11.859Z,69.10
2023-02-23T12:43:59.883Z,69.00
2023-02-23T12:46:31.418Z,68.90
2023-02-23T12:49:19.113Z,68.70
2023-02-23T12:52:02.424Z,68.70
2023-02-23T12:54:30.398Z,68.80
2023-02-23T12:57:24.636Z,68.70
2023-02-23T13:00:05.353Z,68.60
2023-02-23T13:02:50.067Z,68.70
2023-02-23T13:05:25.336Z,68.70
2023-02-23T13:08:13.658Z,68.60
2023-02-23T13:11:03.590Z,68.50
2023-02-23T13:13:55.882Z,68.80
2023-02-23T13:16:40.011Z,68.70
2023-02-23T13:19:18.522Z,68.60
2023-02-23T13:21:54.448Z,68.50
2023-02-23T13:24:28.311Z,68.30
2023-02-23T13:27:17.140Z,68.40
2023-02-23T13:29:46.225Z,68.20
2023-02-23T13:32:18.965Z,68.10
2023-02-23T13:34:52.552Z,67.60
2023-02-23T13:37:23.853Z,67.20
2023-02-23T13:40:02.412Z,66.80
2023-02-23T13:42:28.956Z,65.40
2023-02-23T13:45:15.478Z,65.00
2023-02-23T13:48:04.687Z,63.70
2023-02-23T13:50:54.352Z,63.50
2023-02-23T13:53:43.372Z,63.20
2023-02-23T13:56:56.462Z,63.00
2023-02-23T13:59:37.266Z,62.80
2023-02-23T14:02:30.654Z,62.60
2023-02-23T14:05:01.729Z,62.80
2023-02-23T14:07:32.816Z,62.80
2023-02-23T14:10:07.569Z,62.60
2023-02-23T14:12:40.712Z,62.20
2023-02-23T14:15:27.171Z,61.90
2023-02-23T14:17:58.006Z,62.60
2023-02-23T14:21:05.040Z,62.30
2023-02-23T14:23:36.083Z,61.90
2023-02-23T14:26:28.623Z,61.40
2023-02-23T14:29:17.377Z,61.10
2023-02-23T14:32:04.428Z,60.80
2023-02-23T14:34:49.986Z,60.80
2023-02-23T14:37:27.759Z,60.70
2023-02-23T14:39:56.633Z,60.40
2023-02-23T14:42:29.727Z,60.40
2023-02-23T14:44:57.970Z,59.80
2023-02-23T14:47:27.308Z,60.60
2023-02-23T14:50:01.348Z,60.20
2023-02-23T14:52:32.153Z,60.00
2023-02-23T14:55:10.929Z,60.10
2023-02-23T14:57:40.477Z,59.00
2023-02-23T15:00:15.133Z,59.40
2023-02-23T15:02:55.119Z,59.40
2023-02-23T15:05:25.390Z,59.40
2023-02-23T15:07:53.940Z,59.20
2023-02-23T15:10:28.368Z,59.00
2023-02-23T15:12:56.065Z,59.10
2023-02-23T15:15:25.434Z,59.50
2023-02-23T15:17:57.744Z,59.30
2023-02-23T15:20:32.645Z,59.30
2023-02-23T15:23:01.907Z,59.30
2023-02-23T15:25:38.132Z,59.60
2023-02-23T15:28:20.416Z,59.60
2023-02-23T15:30:49.430Z,60.00
2023-02-23T15:33:23.350Z,60.20
2023-02-23T15:36:08.156Z,60.40
2023-02-23T15:38:43.941Z,60.80
2023-02-23T15:41:33.098Z,61.30
2023-02-23T15:44:09.945Z,61.80
2023-02-23T15:46:37.878Z,62.20
2023-02-23T15:49:06.807Z,62.40
2023-02-23T15:51:39.946Z,62.60
2023-02-23T15:54:13.631Z,62.60
2023-02-23T15:56:40.529Z,62.60
2023-02-23T15:59:21.716Z,62.80
2023-02-23T16:01:48.497Z,63.10
2023-02-23T16:04:15.038Z,63.20
2023-02-23T16:07:11.713Z,63.20
2023-02-23T16:09:38.866Z,63.60
2023-02-23T16:12:17.683Z,63.80
2023-02-23T16:14:45.930Z,64.00
2023-02-23T16:17:28.179Z,64.00
2023-02-23T16:20:07.737Z,64.20
2023-02-23T16:22:35.464Z,64.60
2023-02-23T16:25:07.384Z,64.80
2023-02-23T16:27:34.066Z,64.90
2023-02-23T16:30:26.471Z,65.10
2023-02-23T16:33:08.386Z,65.30
2023-02-23T16:35:45.239Z,65.30
2023-02-23T16:38:26.265Z,65.60
2023-02-23T16:40:53.720Z,65.70
2023-02-23T16:43:21.468Z,65.90
2023-02-23T16:45:48.398Z,66.20
2023-02-23T16:48:16.829Z,66.50
2023-02-23T16:50:45.403Z,66.60
2023-02-23T16:53:12.890Z,66.70
2023-02-23T16:55:45.042Z,66.80
2023-02-23T16:58:17.925Z,66.90
2023-02-23T17:00:44.835Z,67.20
2023-02-23T17:03:23.035Z,67.20
2023-02-23T17:05:49.874Z,67.50
2023-02-23T17:08:16.981Z,67.50
2023-02-23T17:10:47.493Z,67.60
2023-02-23T17:13:22.757Z,67.80
2023-02-23T17:15:54.012Z,68.00
2023-02-23T17:18:28.796Z,68.10
2023-02-23T17:20:57.357Z,68.20
2023-02-23T17:23:26.936Z,68.20
2023-02-23T17:25:55.781Z,68.30
2023-02-23T17:28:22.585Z,68.40
2023-02-23T17:30:49.556Z,68.50
2023-02-23T17:33:17.243Z,68.60
2023-02-23T17:35:43.957Z,68.80
2023-02-23T17:38:11.232Z,68.90
2023-02-23T17:40:38.407Z,69.00
2023-02-23T17:43:09.364Z,69.10
2023-02-23T17:45:36.435Z,69.20
2023-02-23T17:48:03.095Z,69.30
2023-02-23T17:50:29.775Z,69.40
2023-02-23T17:52:57.224Z,69.60
2023-02-23T17:55:24.462Z,69.80
2023-02-23T17:57:51.081Z,69.90
2023-02-23T18:00:18.913Z,70.00
2023-02-23T18:02:46.065Z,70.20
2023-02-23T18:05:14.152Z,70.30
2023-02-23T18:07:41.202Z,70.40
2023-02-23T18:10:08.994Z,70.40
2023-02-23T18:12:35.725Z,70.50
2023-02-23T18:15:02.388Z,70.50
2023-02-23T18:17:32.472Z,70.50
2023-02-23T18:19:59.793Z,70.60
2023-02-23T18:22:26.437Z,70.70
2023-02-23T18:24:53.022Z,70.70
2023-02-23T18:27:19.914Z,70.70
2023-02-23T18:29:46.560Z,70.80
2023-02-23T18:32:13.378Z,70.80
2023-02-23T18:34:40.241Z,70.80
2023-02-23T18:37:09.940Z,70.90
2023-02-23T18:39:36.688Z,71.00
2023-02-23T18:42:04.482Z,71.00
2023-02-23T18:44:33.434Z,71.00
2023-02-23T18:47:01.461Z,71.10
2023-02-23T18:49:28.139Z,71.10
2023-02-23T18:51:54.750Z,71.20
2023-02-23T18:54:22.394Z,71.30
2023-02-23T18:56:49.463Z,71.30
2023-02-23T18:59:16.543Z,71.30
2023-02-23T19:01:45.420Z,71.50
2023-02-23T19:04:12.727Z,71.50
2023-02-23T19:06:42.836Z,71.40
2023-02-23T19:09:12.549Z,71.40
2023-02-23T19:11:41.001Z,71.40
2023-02-23T19:14:12.297Z,71.30
2023-02-23T19:16:39.207Z,71.30
2023-02-23T19:19:07.415Z,71.30
2023-02-23T19:21:34.959Z,71.40
2023-02-23T19:24:02.827Z,71.40
2023-02-23T19:26:30.157Z,71.50
2023-02-23T19:28:58.013Z,71.50
2023-02-23T19:31:26.076Z,71.60
2023-02-23T19:33:55.914Z,71.70
2023-02-23T19:36:29.300Z,71.80
2023-02-23T19:38:56.602Z,71.90
2023-02-23T19:41:23.615Z,71.60
2023-02-23T19:43:50.302Z,71.80
2023-02-23T19:46:17.350Z,71.90
2023-02-23T19:48:48.640Z,72.00
2023-02-23T19:51:15.291Z,72.00
2023-02-23T19:53:41.928Z,72.10
2023-02-23T19:56:12.348Z,72.10
2023-02-23T19:58:39.007Z,72.20
2023-02-23T20:01:08.423Z,72.30
2023-02-23T20:03:39.428Z,72.30
2023-02-23T20:06:07.219Z,72.30
2023-02-23T20:08:34.025Z,72.30
2023-02-23T20:11:00.610Z,72.40
2023-02-23T20:13:27.309Z,72.40
2023-02-23T20:16:04.131Z,72.50
2023-02-23T20:18:33.751Z,72.70
2023-02-23T20:21:00.388Z,72.50
2023-02-23T20:23:27.025Z,72.60
2023-02-23T20:25:53.683Z,72.70
2023-02-23T20:28:20.312Z,72.70
2023-02-23T20:30:47.717Z,72.80
2023-02-23T20:33:15.158Z,72.90
2023-02-23T20:35:42.356Z,72.90
2023-02-23T20:38:09.133Z,72.90
2023-02-23T20:40:35.812Z,72.70
2023-02-23T20:43:02.386Z,72.70
2023-02-23T20:45:29.006Z,72.60
2023-02-23T20:47:56.172Z,72.50
2023-02-23T20:50:25.542Z,72.40
2023-02-23T20:52:52.214Z,72.50
2023-02-23T20:55:19.171Z,72.50
2023-02-23T20:57:47.592Z,72.60
2023-02-23T21:00:22.536Z,72.60
2023-02-23T21:02:55.242Z,72.60
2023-02-23T21:05:26.748Z,72.70
2023-02-23T21:07:58.801Z,72.80
2023-02-23T21:10:28.351Z,72.80
2023-02-23T21:12:55.887Z,72.80
2023-02-23T21:15:25.388Z,72.90
2023-02-23T21:17:52.808Z,73.00
2023-02-23T21:20:20.936Z,73.10
2023-02-23T21:22:51.412Z,73.10
2023-02-23T21:25:21.639Z,73.20
2023-02-23T21:27:49.608Z,73.30
2023-02-23T21:30:19.932Z,73.30
2023-02-23T21:32:48.328Z,73.40
2023-02-23T21:35:15.777Z,73.40
2023-02-23T21:37:42.958Z,73.40
2023-02-23T21:40:13.535Z,73.50
2023-02-23T21:42:41.599Z,73.50
2023-02-23T21:45:09.752Z,73.60
2023-02-23T21:47:38.212Z,73.50
2023-02-23T21:50:05.545Z,73.60
2023-02-23T21:52:33.086Z,73.60
2023-02-23T21:55:02.326Z,73.60
2023-02-23T21:57:30.935Z,73.60
2023-02-23T21:59:57.656Z,73.60
2023-02-23T22:02:30.520Z,73.50
2023-02-23T22:04:58.057Z,73.60
2023-02-23T22:07:24.678Z,73.60
2023-02-23T22:09:51.269Z,73.60
2023-02-23T22:12:17.921Z,73.70
2023-02-23T22:14:44.534Z,73.70
2023-02-23T22:17:11.349Z,73.70
2023-02-23T22:19:38.267Z,73.70
2023-02-23T22:22:04.850Z,73.70
2023-02-23T22:24:31.592Z,73.80
2023-02-23T22:27:00.800Z,73.80
2023-02-23T22:29:27.415Z,73.80
2023-02-23T22:31:54.406Z,73.70
2023-02-23T22:34:21.689Z,73.80
2023-02-23T22:36:48.557Z,73.80
2023-02-23T22:39:16.161Z,73.90
2023-02-23T22:41:43.093Z,73.90
2023-02-23T22:44:16.740Z,74.00
2023-02-23T22:46:46.482Z,74.10
2023-02-23T22:49:15.830Z,74.00
2023-02-23T22:51:43.692Z,74.00
2023-02-23T22:54:11.562Z,74.10
2023-02-23T22:56:38.258Z,74.20
2023-02-23T22:59:06.132Z,74.20
2023-02-23T23:01:33.644Z,74.20
2023-02-23T23:04:00.287Z,74.30
2023-02-23T23:06:27.186Z,74.30
2023-02-23T23:08:56.318Z,74.30
2023-02-23T23:11:26.610Z,74.40
2023-02-23T23:14:01.592Z,74.50
2023-02-23T23:16:32.508Z,74.50
2023-02-23T23:19:07.759Z,74.50
2023-02-23T23:21:35.324Z,74.50
2023-02-23T23:24:07.419Z,74.50
2023-02-23T23:26:36.308Z,74.50
2023-02-23T23:29:05.744Z,74.50
2023-02-23T23:31:34.736Z,74.60
2023-02-23T23:34:09.559Z,74.50
2023-02-23T23:36:42.975Z,74.60
2023-02-23T23:39:12.033Z,74.60
2023-02-23T23:41:39.601Z,74.60
2023-02-23T23:44:06.656Z,74.70
2023-02-23T23:46:38.598Z,74.70
2023-02-23T23:49:10.942Z,74.90
2023-02-23T23:51:48.941Z,74.90
2023-02-23T23:54:21.612Z,74.80
2023-02-23T23:56:49.565Z,74.90
2023-02-23T23:59:21.574Z,74.80
